createdAt,value
2018-03-07T00:00:05.076Z,1.00
2018-03-07T00:01:05.662Z,1.00
2018-03-07T00:02:05.495Z,1.00
2018-03-07T00:03:05.293Z,1.00
2018-03-07T00:04:07.847Z,1.00
2018-03-07T00:05:05.362Z,1.00
2018-03-07T00:06:05.295Z,1.00
2018-03-07T00:07:07.883Z,1.00
2018-03-07T00:08:05.369Z,1.00
2018-03-07T00:09:05.032Z,1.00
2018-03-07T00:10:05.846Z,1.00
2018-03-07T00:11:05.807Z,1.00
2018-03-07T00:12:10.943Z,0.90
2018-03-07T00:13:08.187Z,1.00
2018-03-07T00:14:08.977Z,1.00
2018-03-07T00:15:05.410Z,1.00
2018-03-07T00:16:05.410Z,1.00
2018-03-07T00:17:09.516Z,1.00
2018-03-07T00:18:05.302Z,1.00
2018-03-07T00:19:09.054Z,1.00
2018-03-07T00:20:05.440Z,1.00
2018-03-07T00:21:05.462Z,1.00
2018-03-07T00:22:07.944Z,1.00
2018-03-07T00:23:05.375Z,1.00
2018-03-07T00:24:05.149Z,1.00
2018-03-07T00:25:05.862Z,1.00
2018-03-07T00:26:06.100Z,1.00
2018-03-07T00:27:05.829Z,1.00
2018-03-07T00:28:05.271Z,1.00
2018-03-07T00:29:05.060Z,1.00
2018-03-07T00:30:05.251Z,1.00
2018-03-07T00:31:08.208Z,1.00
2018-03-07T00:32:05.763Z,1.00
2018-03-07T00:33:11.042Z,1.00
2018-03-07T00:34:08.223Z,1.00
2018-03-07T00:35:05.547Z,1.00
2018-03-07T00:36:05.474Z,1.00
2018-03-07T00:37:06.357Z,1.00
2018-03-07T00:38:05.064Z,1.00
2018-03-07T00:39:09.430Z,1.00
2018-03-07T00:40:05.911Z,1.00
2018-03-07T00:41:05.842Z,1.00
2018-03-07T00:42:08.655Z,1.00
2018-03-07T00:43:05.064Z,1.00
2018-03-07T00:44:05.118Z,1.00
2018-03-07T00:45:08.033Z,1.00
2018-03-07T00:46:05.367Z,0.90
2018-03-07T00:47:05.279Z,1.00
2018-03-07T00:48:07.978Z,1.00
2018-03-07T00:49:05.340Z,1.00
2018-03-07T00:50:05.292Z,1.00
2018-03-07T00:51:05.065Z,1.00
2018-03-07T00:52:06.069Z,1.00
2018-03-07T00:53:05.218Z,1.00
2018-03-07T00:54:06.195Z,1.00
2018-03-07T00:55:08.174Z,1.00
2018-03-07T00:56:10.928Z,1.00
2018-03-07T00:57:05.303Z,0.90
2018-03-07T00:58:06.995Z,1.00
2018-03-07T00:59:05.210Z,1.00
2018-03-07T01:00:05.139Z,1.00
2018-03-07T01:01:10.621Z,1.00
2018-03-07T01:02:08.063Z,1.00
2018-03-07T01:03:08.285Z,1.00
2018-03-07T01:04:11.001Z,1.00
2018-03-07T01:05:05.434Z,1.00
2018-03-07T01:06:10.659Z,1.00
2018-03-07T01:07:06.043Z,1.00
2018-03-07T01:08:05.831Z,1.00
2018-03-07T01:09:05.623Z,1.00
2018-03-07T01:10:05.766Z,1.00
2018-03-07T01:11:05.771Z,1.00
2018-03-07T01:12:05.623Z,1.00
2018-03-07T01:13:08.755Z,1.00
2018-03-07T01:14:10.603Z,1.00
2018-03-07T01:15:05.498Z,1.00
2018-03-07T01:16:08.723Z,1.00
2018-03-07T01:17:05.082Z,1.00
2018-03-07T01:18:05.045Z,1.00
2018-03-07T01:19:05.378Z,1.00
2018-03-07T01:20:05.181Z,1.00
2018-03-07T01:21:07.948Z,1.00
2018-03-07T01:22:08.083Z,1.00
2018-03-07T01:23:08.228Z,1.00
2018-03-07T01:24:11.026Z,1.00
2018-03-07T01:25:05.471Z,1.00
2018-03-07T01:26:06.141Z,1.00
2018-03-07T01:27:07.628Z,1.00
2018-03-07T01:28:05.834Z,1.00
2018-03-07T01:29:05.317Z,1.00
2018-03-07T01:30:05.004Z,1.00
2018-03-07T01:31:05.872Z,1.00
2018-03-07T01:32:08.037Z,1.00
2018-03-07T01:33:11.366Z,1.00
2018-03-07T01:34:05.870Z,1.00
2018-03-07T01:35:05.579Z,1.00
2018-03-07T01:36:05.461Z,1.00
2018-03-07T01:37:05.749Z,1.00
2018-03-07T01:38:08.342Z,1.00
2018-03-07T01:39:06.040Z,1.00
2018-03-07T01:40:05.135Z,1.00
2018-03-07T01:41:08.428Z,1.00
2018-03-07T01:42:05.537Z,1.00
2018-03-07T01:43:08.302Z,1.00
2018-03-07T01:44:08.459Z,1.00
2018-03-07T01:45:05.145Z,1.00
2018-03-07T01:46:05.106Z,1.00
2018-03-07T01:47:09.045Z,1.00
2018-03-07T01:48:05.435Z,1.00
2018-03-07T01:49:07.874Z,1.00
2018-03-07T01:50:05.108Z,1.00
2018-03-07T01:51:11.016Z,0.90
2018-03-07T01:52:05.425Z,1.00
2018-03-07T01:53:10.730Z,1.00
2018-03-07T01:54:08.098Z,1.00
2018-03-07T01:55:05.432Z,1.00
2018-03-07T01:56:08.054Z,1.00
2018-03-07T01:57:05.321Z,1.00
2018-03-07T01:58:05.301Z,1.00
2018-03-07T01:59:11.037Z,1.00
2018-03-07T02:00:06.440Z,1.00
2018-03-07T02:01:05.681Z,1.00
2018-03-07T02:02:05.307Z,1.00
2018-03-07T02:03:04.966Z,1.00
2018-03-07T02:04:05.923Z,1.00
2018-03-07T02:05:05.740Z,1.00
2018-03-07T02:06:05.501Z,1.00
2018-03-07T02:07:05.360Z,1.00
2018-03-07T02:08:05.456Z,1.00
2018-03-07T02:09:05.397Z,0.90
2018-03-07T02:10:05.054Z,1.00
2018-03-07T02:11:05.975Z,1.00
2018-03-07T02:12:08.429Z,1.00
2018-03-07T02:13:06.163Z,1.00
2018-03-07T02:14:05.823Z,0.90
2018-03-07T02:15:08.437Z,0.90
2018-03-07T02:16:05.939Z,0.90
2018-03-07T02:17:08.646Z,0.90
2018-03-07T02:18:10.293Z,0.90
2018-03-07T02:19:05.769Z,0.90
2018-03-07T02:20:05.920Z,0.90
2018-03-07T02:21:05.728Z,0.90
2018-03-07T02:22:05.601Z,0.90
2018-03-07T02:23:05.357Z,0.90
2018-03-07T02:24:05.069Z,0.90
2018-03-07T02:25:08.073Z,0.90
2018-03-07T02:26:06.007Z,0.90
2018-03-07T02:27:11.036Z,0.90
2018-03-07T02:28:08.405Z,0.90
2018-03-07T02:29:05.967Z,0.90
2018-03-07T02:30:08.044Z,0.80
2018-03-07T02:31:05.342Z,0.80
2018-03-07T02:32:05.004Z,0.80
2018-03-07T02:33:08.817Z,0.80
2018-03-07T02:34:08.250Z,0.80
2018-03-07T02:35:05.678Z,0.80
2018-03-07T02:36:08.469Z,0.80
2018-03-07T02:37:05.081Z,0.80
2018-03-07T02:38:05.954Z,0.80
2018-03-07T02:39:05.849Z,0.80
2018-03-07T02:40:05.704Z,0.80
2018-03-07T02:41:05.203Z,0.80
2018-03-07T02:42:05.111Z,0.80
2018-03-07T02:43:05.106Z,0.80
2018-03-07T02:44:05.081Z,0.80
2018-03-07T02:45:05.918Z,0.80
2018-03-07T02:46:08.724Z,0.80
2018-03-07T02:47:07.875Z,0.80
2018-03-07T02:48:05.219Z,0.70
2018-03-07T02:49:09.107Z,0.80
2018-03-07T02:50:10.731Z,0.70
2018-03-07T02:51:05.344Z,0.70
2018-03-07T02:52:05.266Z,0.70
2018-03-07T02:53:10.360Z,0.70
2018-03-07T02:54:05.958Z,0.70
2018-03-07T02:55:05.309Z,0.70
2018-03-07T02:56:05.980Z,0.70
2018-03-07T02:57:05.849Z,0.60
2018-03-07T02:58:05.538Z,0.70
2018-03-07T02:59:05.420Z,0.60
2018-03-07T03:00:10.367Z,0.60
2018-03-07T03:01:05.979Z,0.60
2018-03-07T03:02:08.538Z,0.60
2018-03-07T03:03:05.125Z,0.60
2018-03-07T03:04:07.895Z,0.50
2018-03-07T03:05:08.629Z,0.60
2018-03-07T03:06:07.793Z,0.50
2018-03-07T03:07:05.138Z,0.50
2018-03-07T03:08:05.834Z,0.50
2018-03-07T03:09:05.131Z,0.50
2018-03-07T03:10:05.035Z,0.50
2018-03-07T03:11:05.791Z,0.50
2018-03-07T03:12:11.046Z,0.50
2018-03-07T03:13:05.568Z,0.50
2018-03-07T03:14:05.756Z,0.50
2018-03-07T03:15:05.830Z,0.40
2018-03-07T03:16:05.663Z,0.40
2018-03-07T03:17:05.915Z,0.50
2018-03-07T03:18:05.849Z,0.40
2018-03-07T03:19:08.756Z,0.40
2018-03-07T03:20:05.316Z,0.40
2018-03-07T03:21:05.480Z,0.40
2018-03-07T03:22:05.137Z,0.40
2018-03-07T03:23:10.856Z,0.30
2018-03-07T03:24:05.400Z,0.40
2018-03-07T03:25:08.530Z,0.30
2018-03-07T03:26:05.013Z,0.30
2018-03-07T03:27:07.943Z,0.40
2018-03-07T03:28:05.240Z,0.30
2018-03-07T03:29:05.057Z,0.40
2018-03-07T03:30:05.073Z,0.30
2018-03-07T03:31:13.602Z,0.30
2018-03-07T03:32:05.926Z,0.30
2018-03-07T03:33:05.580Z,0.30
2018-03-07T03:34:07.517Z,0.20
2018-03-07T03:35:05.829Z,0.20
2018-03-07T03:36:05.776Z,0.30
2018-03-07T03:37:10.745Z,0.20
2018-03-07T03:38:07.695Z,0.20
2018-03-07T03:39:11.172Z,0.20
2018-03-07T03:40:05.711Z,0.20
2018-03-07T03:41:05.490Z,0.20
2018-03-07T03:42:05.077Z,0.20
2018-03-07T03:43:05.837Z,0.10
2018-03-07T03:44:05.921Z,0.20
2018-03-07T03:45:05.628Z,0.20
2018-03-07T03:46:08.203Z,0.10
2018-03-07T03:47:05.395Z,0.10
2018-03-07T03:48:08.403Z,0.10
2018-03-07T03:49:11.133Z,0.10
2018-03-07T03:50:08.355Z,0.10
2018-03-07T03:51:06.056Z,0.10
2018-03-07T03:52:06.132Z,0.10
2018-03-07T03:53:05.550Z,0.10
2018-03-07T03:54:05.553Z,0.00
2018-03-07T03:55:05.063Z,0.00
2018-03-07T03:56:05.857Z,0.00
2018-03-07T03:57:05.488Z,0.00
2018-03-07T03:58:05.116Z,0.00
2018-03-07T03:59:08.504Z,-0.10
2018-03-07T04:00:07.845Z,-0.10
2018-03-07T04:01:05.106Z,-0.10
2018-03-07T04:02:05.864Z,0.00
2018-03-07T04:03:05.586Z,-0.10
2018-03-07T04:04:11.135Z,-0.10
2018-03-07T04:05:05.513Z,-0.10
2018-03-07T04:06:05.294Z,-0.10
2018-03-07T04:07:08.307Z,-0.10
2018-03-07T04:08:05.786Z,-0.10
2018-03-07T04:09:05.825Z,-0.20
2018-03-07T04:10:10.786Z,-0.20
2018-03-07T04:11:07.831Z,-0.20
2018-03-07T04:12:10.373Z,-0.20
2018-03-07T04:13:08.364Z,-0.20
2018-03-07T04:14:05.801Z,-0.20
2018-03-07T04:15:10.751Z,-0.20
2018-03-07T04:16:08.155Z,-0.20
2018-03-07T04:17:10.724Z,-0.30
2018-03-07T04:18:07.798Z,-0.30
2018-03-07T04:19:05.278Z,-0.30
2018-03-07T04:20:10.428Z,-0.30
2018-03-07T04:21:08.057Z,-0.30
2018-03-07T04:22:05.428Z,-0.30
2018-03-07T04:23:05.226Z,-0.30
2018-03-07T04:24:07.843Z,-0.30
2018-03-07T04:25:05.206Z,-0.40
2018-03-07T04:26:10.395Z,-0.40
2018-03-07T04:27:05.755Z,-0.40
2018-03-07T04:28:07.898Z,-0.40
2018-03-07T04:29:05.211Z,-0.40
2018-03-07T04:30:05.116Z,-0.40
2018-03-07T04:31:08.929Z,-0.40
2018-03-07T04:32:05.437Z,-0.50
2018-03-07T04:33:06.520Z,-0.40
2018-03-07T04:34:09.641Z,-0.50
2018-03-07T04:35:05.141Z,-0.50
2018-03-07T04:36:08.042Z,-0.50
2018-03-07T04:37:05.306Z,-0.50
2018-03-07T04:38:05.271Z,-0.50
2018-03-07T04:39:10.400Z,-0.50
2018-03-07T04:40:08.954Z,-0.50
2018-03-07T04:41:05.519Z,-0.50
2018-03-07T04:42:08.404Z,-0.50
2018-03-07T04:43:08.724Z,-0.60
2018-03-07T04:44:05.182Z,-0.60
2018-03-07T04:45:08.087Z,-0.60
2018-03-07T04:46:08.323Z,-0.60
2018-03-07T04:47:05.682Z,-0.60
2018-03-07T04:48:07.587Z,-0.60
2018-03-07T04:49:08.578Z,-0.60
2018-03-07T04:50:05.107Z,-0.60
2018-03-07T04:51:05.911Z,-0.60
2018-03-07T04:52:08.369Z,-0.70
2018-03-07T04:53:05.723Z,-0.70
2018-03-07T04:54:08.345Z,-0.70
2018-03-07T04:55:05.729Z,-0.70
2018-03-07T04:56:05.390Z,-0.70
2018-03-07T04:57:05.390Z,-0.70
2018-03-07T04:58:05.375Z,-0.70
2018-03-07T04:59:10.472Z,-0.80
2018-03-07T05:00:05.170Z,-0.80
2018-03-07T05:01:05.305Z,-0.80
2018-03-07T05:02:08.060Z,-0.80
2018-03-07T05:03:05.329Z,-0.80
2018-03-07T05:04:08.101Z,-0.80
2018-03-07T05:05:08.216Z,-0.80
2018-03-07T05:06:05.448Z,-0.80
2018-03-07T05:07:05.462Z,-0.80
2018-03-07T05:08:05.376Z,-0.80
2018-03-07T05:09:07.977Z,-0.90
2018-03-07T05:10:05.206Z,-0.90
2018-03-07T05:11:08.314Z,-0.90
2018-03-07T05:12:05.701Z,-0.90
2018-03-07T05:13:10.396Z,-0.90
2018-03-07T05:14:05.947Z,-0.90
2018-03-07T05:15:09.261Z,-0.80
2018-03-07T05:16:10.868Z,-0.90
2018-03-07T05:17:08.082Z,-0.80
2018-03-07T05:18:05.412Z,-0.90
2018-03-07T05:19:08.438Z,-0.80
2018-03-07T05:20:10.457Z,-0.80
2018-03-07T05:21:05.862Z,-0.80
2018-03-07T05:22:05.819Z,-0.90
2018-03-07T05:23:07.526Z,-0.90
2018-03-07T05:24:10.835Z,-0.90
2018-03-07T05:25:05.675Z,-0.90
2018-03-07T05:26:13.476Z,-0.90
2018-03-07T05:27:05.816Z,-0.90
2018-03-07T05:28:05.617Z,-0.80
2018-03-07T05:29:05.624Z,-0.90
2018-03-07T05:30:08.271Z,-0.90
2018-03-07T05:31:10.821Z,-0.90
2018-03-07T05:32:05.237Z,-0.90
2018-03-07T05:33:08.926Z,-0.90
2018-03-07T05:34:05.529Z,-0.90
2018-03-07T05:35:09.278Z,-0.90
2018-03-07T05:36:05.795Z,-0.90
2018-03-07T05:37:05.546Z,-0.90
2018-03-07T05:38:05.563Z,-0.90
2018-03-07T05:39:10.449Z,-0.90
2018-03-07T05:40:05.837Z,-0.80
2018-03-07T05:41:05.122Z,-0.90
2018-03-07T05:42:05.871Z,-0.80
2018-03-07T05:43:06.093Z,-0.80
2018-03-07T05:44:05.908Z,-0.80
2018-03-07T05:45:05.641Z,-0.80
2018-03-07T05:46:05.723Z,-0.90
2018-03-07T05:47:05.901Z,-0.80
2018-03-07T05:48:08.166Z,-0.80
2018-03-07T05:49:05.776Z,-0.80
2018-03-07T05:50:08.606Z,-0.80
2018-03-07T05:51:05.216Z,-0.80
2018-03-07T05:52:04.997Z,-0.80
2018-03-07T05:53:09.218Z,-0.90
2018-03-07T05:54:08.221Z,-0.90
2018-03-07T05:55:08.307Z,-0.90
2018-03-07T05:56:08.445Z,-0.90
2018-03-07T05:57:11.194Z,-0.90
2018-03-07T05:58:05.667Z,-0.90
2018-03-07T05:59:07.821Z,-0.90
2018-03-07T06:00:05.378Z,-0.90
2018-03-07T06:01:08.020Z,-0.80
2018-03-07T06:02:08.260Z,-0.90
2018-03-07T06:03:08.595Z,-0.90
2018-03-07T06:04:05.576Z,-0.90
2018-03-07T06:05:05.213Z,-0.90
2018-03-07T06:06:07.896Z,-0.80
2018-03-07T06:07:05.382Z,-0.80
2018-03-07T06:08:10.455Z,-0.80
2018-03-07T06:09:05.966Z,-0.80
2018-03-07T06:10:10.918Z,-0.70
2018-03-07T06:11:05.451Z,-0.80
2018-03-07T06:12:05.652Z,-0.80
2018-03-07T06:13:05.855Z,-0.80
2018-03-07T06:14:05.559Z,-0.70
2018-03-07T06:15:10.896Z,-0.70
2018-03-07T06:16:08.301Z,-0.70
2018-03-07T06:17:08.495Z,-0.70
2018-03-07T06:18:11.249Z,-0.70
2018-03-07T06:19:05.640Z,-0.70
2018-03-07T06:20:11.246Z,-0.70
2018-03-07T06:21:08.628Z,-0.70
2018-03-07T06:22:10.474Z,-0.70
2018-03-07T06:23:05.898Z,-0.70
2018-03-07T06:24:05.668Z,-0.70
2018-03-07T06:25:05.620Z,-0.70
2018-03-07T06:26:05.339Z,-0.60
2018-03-07T06:27:10.547Z,-0.60
2018-03-07T06:28:05.814Z,-0.60
2018-03-07T06:29:10.971Z,-0.60
2018-03-07T06:30:05.563Z,-0.60
2018-03-07T06:31:05.521Z,-0.60
2018-03-07T06:32:05.510Z,-0.60
2018-03-07T06:33:08.259Z,-0.60
2018-03-07T06:34:05.589Z,-0.60
2018-03-07T06:35:05.741Z,-0.60
2018-03-07T06:36:10.896Z,-0.60
2018-03-07T06:37:05.376Z,-0.60
2018-03-07T06:38:10.454Z,-0.50
2018-03-07T06:39:05.835Z,-0.50
2018-03-07T06:40:05.617Z,-0.50
2018-03-07T06:41:05.558Z,-0.40
2018-03-07T06:42:05.778Z,-0.50
2018-03-07T06:43:08.475Z,-0.40
2018-03-07T06:44:09.809Z,-0.40
2018-03-07T06:45:05.366Z,-0.40
2018-03-07T06:46:05.418Z,-0.40
2018-03-07T06:47:05.546Z,-0.40
2018-03-07T06:48:05.000Z,-0.30
2018-03-07T06:49:15.756Z,-0.30
2018-03-07T06:50:05.982Z,-0.30
2018-03-07T06:51:06.140Z,-0.30
2018-03-07T06:52:05.643Z,-0.20
2018-03-07T06:53:05.502Z,-0.30
2018-03-07T06:54:05.490Z,-0.30
2018-03-07T06:55:07.881Z,-0.20
2018-03-07T06:56:05.114Z,-0.20
2018-03-07T06:57:06.002Z,-0.20
2018-03-07T06:58:05.405Z,-0.20
2018-03-07T06:59:05.392Z,-0.20
2018-03-07T07:00:05.293Z,-0.10
2018-03-07T07:01:05.073Z,-0.10
2018-03-07T07:02:07.923Z,-0.10
2018-03-07T07:03:05.168Z,-0.10
2018-03-07T07:04:08.606Z,0.00
2018-03-07T07:05:05.290Z,0.00
2018-03-07T07:06:05.654Z,0.00
2018-03-07T07:07:05.644Z,0.00
2018-03-07T07:08:05.630Z,0.00
2018-03-07T07:09:05.500Z,0.10
2018-03-07T07:10:05.243Z,0.10
2018-03-07T07:11:05.983Z,0.10
2018-03-07T07:12:05.623Z,0.20
2018-03-07T07:13:11.695Z,0.10
2018-03-07T07:14:05.105Z,0.20
2018-03-07T07:15:05.031Z,0.30
2018-03-07T07:16:05.815Z,0.30
2018-03-07T07:17:05.570Z,0.30
2018-03-07T07:18:05.403Z,0.40
2018-03-07T07:19:05.210Z,0.40
2018-03-07T07:20:05.388Z,0.40
2018-03-07T07:21:05.413Z,0.50
2018-03-07T07:22:05.217Z,0.50
2018-03-07T07:23:08.727Z,0.60
2018-03-07T07:24:05.173Z,0.60
2018-03-07T07:25:08.411Z,0.60
2018-03-07T07:26:08.127Z,0.60
2018-03-07T07:27:10.894Z,0.70
2018-03-07T07:28:05.299Z,0.70
2018-03-07T07:29:05.894Z,0.70
2018-03-07T07:30:05.850Z,0.70
2018-03-07T07:31:05.166Z,0.80
2018-03-07T07:32:05.890Z,0.80
2018-03-07T07:33:05.461Z,0.80
2018-03-07T07:34:10.934Z,0.90
2018-03-07T07:35:08.228Z,0.90
2018-03-07T07:36:08.297Z,0.90
2018-03-07T07:37:05.555Z,1.00
2018-03-07T07:38:10.602Z,1.00
2018-03-07T07:39:05.218Z,1.00
2018-03-07T07:40:05.945Z,1.10
2018-03-07T07:41:05.821Z,1.10
2018-03-07T07:42:05.643Z,1.20
2018-03-07T07:43:08.002Z,1.30
2018-03-07T07:44:05.970Z,1.30
2018-03-07T07:45:05.803Z,1.30
2018-03-07T07:46:05.593Z,1.40
2018-03-07T07:47:05.447Z,1.50
2018-03-07T07:48:05.174Z,1.50
2018-03-07T07:49:05.118Z,1.60
2018-03-07T07:50:05.923Z,1.60
2018-03-07T07:51:05.124Z,1.60
2018-03-07T07:52:05.343Z,1.60
2018-03-07T07:53:05.430Z,1.70
2018-03-07T07:54:08.308Z,1.80
2018-03-07T07:55:05.786Z,1.70
2018-03-07T07:56:05.929Z,1.80
2018-03-07T07:57:06.071Z,1.80
2018-03-07T07:58:05.157Z,1.80
2018-03-07T07:59:05.895Z,1.90
2018-03-07T08:00:05.018Z,2.00
2018-03-07T08:01:08.281Z,2.00
2018-03-07T08:02:05.661Z,2.00
2018-03-07T08:03:11.011Z,2.00
2018-03-07T08:04:05.524Z,2.00
2018-03-07T08:05:06.081Z,2.00
2018-03-07T08:06:05.716Z,2.00
2018-03-07T08:07:10.965Z,2.00
2018-03-07T08:08:05.664Z,2.10
2018-03-07T08:09:05.353Z,2.10
2018-03-07T08:10:05.981Z,2.10
2018-03-07T08:11:08.506Z,2.20
2018-03-07T08:12:05.893Z,2.20
2018-03-07T08:13:08.038Z,2.20
2018-03-07T08:14:08.024Z,2.30
2018-03-07T08:15:05.522Z,2.20
2018-03-07T08:16:05.029Z,2.30
2018-03-07T08:17:05.693Z,2.30
2018-03-07T08:18:05.646Z,2.30
2018-03-07T08:19:05.578Z,2.30
2018-03-07T08:20:05.820Z,2.30
2018-03-07T08:21:05.688Z,2.30
2018-03-07T08:22:05.160Z,2.40
2018-03-07T08:23:10.545Z,2.50
2018-03-07T08:24:05.946Z,2.50
2018-03-07T08:25:10.990Z,2.60
2018-03-07T08:26:05.481Z,2.60
2018-03-07T08:27:05.364Z,2.70
2018-03-07T08:28:10.670Z,2.80
2018-03-07T08:29:04.953Z,3.00
2018-03-07T08:30:05.655Z,3.10
2018-03-07T08:31:05.484Z,3.20
2018-03-07T08:32:08.116Z,3.40
2018-03-07T08:33:09.416Z,3.50
2018-03-07T08:34:11.061Z,3.60
2018-03-07T08:35:05.742Z,3.60
2018-03-07T08:36:10.731Z,3.70
2018-03-07T08:37:05.506Z,3.70
2018-03-07T08:38:05.034Z,3.80
2018-03-07T08:39:05.623Z,3.80
2018-03-07T08:40:08.193Z,3.90
2018-03-07T08:41:05.523Z,3.90
2018-03-07T08:42:05.497Z,3.90
2018-03-07T08:43:05.852Z,4.00
2018-03-07T08:44:11.043Z,4.00
2018-03-07T08:45:05.724Z,4.00
2018-03-07T08:46:05.433Z,4.00
2018-03-07T08:47:10.632Z,4.10
2018-03-07T08:48:08.132Z,4.00
2018-03-07T08:49:05.457Z,4.10
2018-03-07T08:50:11.031Z,4.10
2018-03-07T08:51:09.439Z,4.10
2018-03-07T08:52:06.233Z,4.00
2018-03-07T08:53:08.371Z,4.00
2018-03-07T08:54:10.993Z,4.00
2018-03-07T08:55:08.400Z,4.00
2018-03-07T08:56:08.661Z,4.00
2018-03-07T08:57:05.326Z,4.00
2018-03-07T08:58:11.004Z,4.10
2018-03-07T08:59:05.394Z,4.00
2018-03-07T09:00:05.869Z,4.10
2018-03-07T09:01:05.368Z,4.00
2018-03-07T09:02:10.306Z,4.10
2018-03-07T09:03:08.688Z,4.10
2018-03-07T09:04:05.061Z,4.00
2018-03-07T09:05:05.029Z,4.10
2018-03-07T09:06:05.590Z,4.10
2018-03-07T09:07:05.269Z,4.10
2018-03-07T09:08:07.778Z,4.10
2018-03-07T09:09:07.547Z,4.00
2018-03-07T09:10:05.880Z,4.10
2018-03-07T09:11:05.586Z,4.10
2018-03-07T09:12:05.161Z,4.10
2018-03-07T09:13:06.305Z,4.10
2018-03-07T09:14:05.167Z,4.10
2018-03-07T09:15:05.208Z,4.00
2018-03-07T09:16:05.028Z,4.10
2018-03-07T09:17:09.946Z,4.10
2018-03-07T09:18:05.704Z,4.00
2018-03-07T09:19:05.494Z,4.00
2018-03-07T09:20:05.780Z,4.10
2018-03-07T09:21:11.083Z,4.10
2018-03-07T09:22:05.625Z,4.10
2018-03-07T09:23:05.492Z,4.10
2018-03-07T09:24:05.580Z,4.10
2018-03-07T09:25:05.152Z,4.10
2018-03-07T09:26:05.925Z,4.10
2018-03-07T09:27:06.116Z,4.10
2018-03-07T09:28:06.042Z,4.10
2018-03-07T09:29:05.928Z,4.10
2018-03-07T09:30:05.030Z,4.10
2018-03-07T09:31:10.728Z,4.10
2018-03-07T09:32:05.371Z,4.10
2018-03-07T09:33:05.083Z,4.10
2018-03-07T09:34:05.530Z,4.10
2018-03-07T09:35:05.476Z,4.10
2018-03-07T09:36:05.528Z,4.20
2018-03-07T09:37:05.850Z,4.10
2018-03-07T09:38:08.560Z,4.20
2018-03-07T09:39:05.987Z,4.20
2018-03-07T09:40:06.009Z,4.20
2018-03-07T09:41:05.826Z,3.40
2018-03-07T09:42:05.300Z,4.20
2018-03-07T09:43:05.890Z,4.20
2018-03-07T09:44:11.155Z,4.20
2018-03-07T09:45:06.098Z,4.30
2018-03-07T09:46:05.564Z,4.30
2018-03-07T09:47:05.513Z,4.30
2018-03-07T09:48:10.644Z,4.30
2018-03-07T09:49:05.184Z,4.30
2018-03-07T09:50:05.150Z,4.30
2018-03-07T09:51:08.481Z,4.40
2018-03-07T09:52:05.307Z,4.30
2018-03-07T09:53:05.043Z,4.40
2018-03-07T09:54:08.104Z,4.40
2018-03-07T09:55:05.348Z,4.30
2018-03-07T09:56:07.780Z,4.30
2018-03-07T09:57:05.019Z,4.30
2018-03-07T09:58:05.838Z,4.30
2018-03-07T09:59:05.493Z,4.30
2018-03-07T10:00:05.101Z,4.20
2018-03-07T10:01:05.829Z,4.20
2018-03-07T10:02:05.609Z,4.20
2018-03-07T10:03:08.329Z,4.10
2018-03-07T10:04:08.597Z,4.10
2018-03-07T10:05:05.049Z,4.10
2018-03-07T10:06:05.765Z,4.10
2018-03-07T10:07:08.280Z,4.10
2018-03-07T10:08:05.652Z,4.10
2018-03-07T10:09:05.436Z,4.00
2018-03-07T10:10:06.215Z,4.00
2018-03-07T10:11:05.377Z,4.00
2018-03-07T10:12:05.274Z,4.00
2018-03-07T10:13:05.037Z,4.00
2018-03-07T10:14:05.189Z,4.00
2018-03-07T10:15:05.240Z,4.00
2018-03-07T10:16:07.731Z,4.00
2018-03-07T10:17:05.398Z,4.00
2018-03-07T10:18:10.733Z,4.00
2018-03-07T10:19:07.847Z,4.00
2018-03-07T10:20:09.535Z,4.00
2018-03-07T10:21:05.896Z,4.00
2018-03-07T10:22:11.081Z,4.00
2018-03-07T10:23:11.108Z,4.10
2018-03-07T10:24:05.450Z,4.00
2018-03-07T10:25:10.729Z,4.00
2018-03-07T10:26:08.525Z,4.10
2018-03-07T10:27:05.759Z,4.10
2018-03-07T10:28:05.698Z,4.10
2018-03-07T10:39:05.105Z,4.10
2018-03-07T10:43:11.059Z,4.10
2018-03-07T10:44:05.288Z,4.10
2018-03-07T10:46:05.300Z,4.10
2018-03-07T10:50:08.717Z,4.00
2018-03-07T10:51:07.729Z,4.00
2018-03-07T10:52:07.784Z,4.00
2018-03-07T10:54:10.753Z,4.10
2018-03-07T10:55:05.368Z,4.00
2018-03-07T10:56:05.912Z,4.10
2018-03-07T10:57:05.845Z,4.10
2018-03-07T10:58:05.742Z,4.10
2018-03-07T10:59:05.960Z,4.10
2018-03-07T11:00:05.130Z,4.20
2018-03-07T11:02:10.695Z,4.20
2018-03-07T11:28:09.429Z,6.10
2018-03-07T11:31:05.159Z,6.10
2018-03-07T11:39:09.435Z,6.30
2018-03-07T11:40:10.505Z,6.40
2018-03-07T11:41:05.902Z,6.40
2018-03-07T11:42:05.791Z,6.40
2018-03-07T11:43:05.430Z,6.40
2018-03-07T11:44:05.180Z,6.40
2018-03-07T11:45:05.989Z,6.40
2018-03-07T11:46:05.108Z,6.50
2018-03-07T11:47:07.918Z,6.60
2018-03-07T11:48:12.474Z,6.50
2018-03-07T11:49:08.082Z,6.60
2018-03-07T11:51:05.774Z,6.60
2018-03-07T11:52:05.631Z,6.60
2018-03-07T11:53:10.579Z,6.70
2018-03-07T12:16:05.779Z,7.90
2018-03-07T12:17:08.572Z,7.90
2018-03-07T12:18:11.000Z,8.00
2018-03-07T12:19:05.563Z,7.90
2018-03-07T12:20:05.964Z,7.90
2018-03-07T12:21:08.554Z,7.90
2018-03-07T12:22:05.812Z,7.90
2018-03-07T12:35:06.974Z,8.00
2018-03-07T12:36:10.579Z,8.00
2018-03-07T12:37:07.567Z,8.00
2018-03-07T12:38:10.970Z,8.00
2018-03-07T12:39:05.268Z,8.10
2018-03-07T12:40:08.770Z,8.10
2018-03-07T12:41:05.335Z,8.10
2018-03-07T12:42:05.232Z,8.10
2018-03-07T12:43:05.783Z,8.20
2018-03-07T12:44:05.925Z,8.20
2018-03-07T12:45:05.615Z,8.20
2018-03-07T12:46:05.634Z,8.20
2018-03-07T12:47:05.687Z,8.30
2018-03-07T12:48:05.837Z,8.30
2018-03-07T12:49:08.381Z,8.30
2018-03-07T12:50:05.700Z,8.20
2018-03-07T12:51:05.998Z,8.20
2018-03-07T12:52:05.470Z,8.20
2018-03-07T12:53:05.943Z,8.20
2018-03-07T12:54:05.910Z,8.20
2018-03-07T12:55:05.980Z,8.20
2018-03-07T12:56:05.784Z,8.30
2018-03-07T12:57:09.041Z,8.20
2018-03-07T12:58:05.548Z,8.20
2018-03-07T12:59:05.390Z,8.20
2018-03-07T13:00:05.520Z,8.20
2018-03-07T13:01:05.477Z,8.20
2018-03-07T13:02:05.511Z,8.30
2018-03-07T13:03:05.617Z,8.30
2018-03-07T13:04:05.603Z,8.30
2018-03-07T13:05:08.331Z,8.30
2018-03-07T13:06:05.901Z,8.30
2018-03-07T13:07:08.460Z,8.30
2018-03-07T13:08:11.021Z,8.30
2018-03-07T13:09:08.664Z,8.30
2018-03-07T13:10:05.926Z,8.30
2018-03-07T13:11:05.440Z,8.30
2018-03-07T13:12:05.354Z,8.20
2018-03-07T13:13:09.085Z,8.20
2018-03-07T13:14:05.532Z,8.10
2018-03-07T13:15:08.695Z,8.10
2018-03-07T13:16:05.004Z,8.10
2018-03-07T13:17:05.955Z,8.10
2018-03-07T13:18:11.335Z,8.10
2018-03-07T13:19:11.041Z,8.10
2018-03-07T13:20:05.824Z,8.10
2018-03-07T13:21:05.674Z,8.10
2018-03-07T13:22:08.209Z,8.10
2018-03-07T13:23:05.735Z,8.10
2018-03-07T13:24:08.212Z,8.20
2018-03-07T13:25:05.521Z,8.10
2018-03-07T13:26:10.231Z,8.20
2018-03-07T13:27:05.718Z,8.10
2018-03-07T13:28:08.495Z,8.10
2018-03-07T13:29:05.783Z,8.20
2018-03-07T13:30:05.618Z,8.10
2018-03-07T13:31:05.159Z,8.20
2018-03-07T13:32:08.171Z,8.20
2018-03-07T13:33:05.380Z,8.10
2018-03-07T13:34:10.599Z,8.10
2018-03-07T13:35:05.025Z,8.20
2018-03-07T13:36:08.232Z,8.10
2018-03-07T13:37:05.696Z,8.10
2018-03-07T13:38:09.917Z,8.10
2018-03-07T13:39:05.081Z,8.20
2018-03-07T13:40:05.024Z,8.10
2018-03-07T13:41:10.998Z,8.20
2018-03-07T13:42:08.365Z,8.20
2018-03-07T13:43:11.061Z,8.20
2018-03-07T13:44:05.719Z,8.10
2018-03-07T13:45:05.922Z,8.20
2018-03-07T13:46:05.871Z,8.10
2018-03-07T13:47:05.810Z,8.10
2018-03-07T13:48:08.950Z,8.10
2018-03-07T13:49:05.303Z,8.10
2018-03-07T13:50:05.524Z,8.10
2018-03-07T13:52:05.463Z,8.10
2018-03-07T14:30:05.250Z,7.50
2018-03-07T14:31:05.571Z,7.50
2018-03-07T14:32:05.628Z,7.50
2018-03-07T14:33:05.760Z,7.50
2018-03-07T14:34:05.672Z,7.50
2018-03-07T14:35:05.581Z,7.50
2018-03-07T14:36:08.776Z,7.50
2018-03-07T14:37:05.013Z,7.50
2018-03-07T14:38:05.052Z,7.50
2018-03-07T14:39:05.834Z,7.50
2018-03-07T14:40:05.278Z,7.50
2018-03-07T14:41:06.012Z,7.50
2018-03-07T14:42:08.606Z,7.40
2018-03-07T14:43:05.902Z,7.50
2018-03-07T14:44:05.767Z,7.50
2018-03-07T14:45:05.410Z,7.40
2018-03-07T14:46:05.194Z,7.40
2018-03-07T14:47:08.571Z,7.40
2018-03-07T14:48:08.383Z,7.40
2018-03-07T14:49:10.697Z,7.40
2018-03-07T14:50:05.050Z,7.40
2018-03-07T14:51:05.142Z,7.40
2018-03-07T14:52:05.122Z,7.30
2018-03-07T14:53:06.079Z,7.40
2018-03-07T14:54:07.816Z,7.30
2018-03-07T14:55:07.880Z,7.30
2018-03-07T14:56:10.695Z,7.20
2018-03-07T14:57:05.137Z,7.30
2018-03-07T14:58:08.768Z,7.20
2018-03-07T14:59:04.985Z,7.30
2018-03-07T15:00:05.702Z,7.20
2018-03-07T15:01:08.064Z,7.20
2018-03-07T15:02:05.389Z,7.10
2018-03-07T15:03:05.626Z,7.10
2018-03-07T15:04:05.278Z,7.10
2018-03-07T15:05:05.180Z,7.10
2018-03-07T15:06:08.595Z,7.00
2018-03-07T15:07:05.847Z,7.00
2018-03-07T15:08:05.575Z,7.00
2018-03-07T15:09:05.101Z,7.00
2018-03-07T15:10:05.642Z,7.00
2018-03-07T15:11:05.756Z,6.90
2018-03-07T15:12:05.479Z,6.90
2018-03-07T15:13:05.243Z,6.90
2018-03-07T15:14:05.857Z,6.90
2018-03-07T15:15:05.445Z,6.80
2018-03-07T15:16:08.045Z,6.80
2018-03-07T15:17:05.284Z,6.80
2018-03-07T15:18:05.178Z,6.80